sensor_id;sensor_type;location;lat;lon;timestamp;P1;durP1;ratioP1;P2;durP2;ratioP2
36195;SDS011;22237;51.974;4.616;2023-06-19T00:01:40;0.13;;;0.13;;
36195;SDS011;22237;51.974;4.616;2023-06-19T00:04:05;0.40;;;0.20;;
36195;SDS011;22237;51.974;4.616;2023-06-19T00:06:30;0.53;;;0.50;;
36195;SDS011;22237;51.974;4.616;2023-06-19T00:08:56;0.40;;;0.40;;
36195;SDS011;22237;51.974;4.616;2023-06-19T00:11:21;0.28;;;0.28;;
36195;SDS011;22237;51.974;4.616;2023-06-19T00:13:46;5.65;;;1.35;;
36195;SDS011;22237;51.974;4.616;2023-06-19T00:16:11;0.73;;;0.33;;
36195;SDS011;22237;51.974;4.616;2023-06-19T00:18:37;0.17;;;0.17;;
36195;SDS011;22237;51.974;4.616;2023-06-19T00:21:04;0.93;;;0.30;;
36195;SDS011;22237;51.974;4.616;2023-06-19T00:23:30;2.22;;;0.80;;
36195;SDS011;22237;51.974;4.616;2023-06-19T00:25:55;0.67;;;0.40;;
36195;SDS011;22237;51.974;4.616;2023-06-19T00:28:21;0.15;;;0.15;;
36195;SDS011;22237;51.974;4.616;2023-06-19T00:30:46;1.08;;;0.77;;
36195;SDS011;22237;51.974;4.616;2023-06-19T00:33:11;0.20;;;0.20;;
36195;SDS011;22237;51.974;4.616;2023-06-19T00:35:36;1.30;;;0.50;;
36195;SDS011;22237;51.974;4.616;2023-06-19T00:38:02;0.30;;;0.30;;
36195;SDS011;22237;51.974;4.616;2023-06-19T00:40:28;1.77;;;0.80;;
36195;SDS011;22237;51.974;4.616;2023-06-19T00:42:54;0.55;;;0.55;;
36195;SDS011;22237;51.974;4.616;2023-06-19T00:45:19;1.30;;;0.50;;
36195;SDS011;22237;51.974;4.616;2023-06-19T00:47:44;0.55;;;0.40;;
36195;SDS011;22237;51.974;4.616;2023-06-19T00:50:10;0.70;;;0.40;;
36195;SDS011;22237;51.974;4.616;2023-06-19T00:52:35;0.30;;;0.30;;
36195;SDS011;22237;51.974;4.616;2023-06-19T00:55:00;2.90;;;1.20;;
36195;SDS011;22237;51.974;4.616;2023-06-19T00:57:26;0.85;;;0.32;;
36195;SDS011;22237;51.974;4.616;2023-06-19T00:59:51;0.63;;;0.57;;
36195;SDS011;22237;51.974;4.616;2023-06-19T01:02:18;1.35;;;0.50;;
36195;SDS011;22237;51.974;4.616;2023-06-19T01:04:44;0.75;;;0.30;;
36195;SDS011;22237;51.974;4.616;2023-06-19T01:07:09;0.83;;;0.63;;
36195;SDS011;22237;51.974;4.616;2023-06-19T01:09:39;2.15;;;0.90;;
36195;SDS011;22237;51.974;4.616;2023-06-19T01:12:08;1.25;;;1.10;;
36195;SDS011;22237;51.974;4.616;2023-06-19T01:14:36;0.88;;;0.65;;
36195;SDS011;22237;51.974;4.616;2023-06-19T01:17:03;2.78;;;1.00;;
36195;SDS011;22237;51.974;4.616;2023-06-19T01:19:28;0.82;;;0.73;;
36195;SDS011;22237;51.974;4.616;2023-06-19T01:21:53;3.88;;;1.88;;
36195;SDS011;22237;51.974;4.616;2023-06-19T01:24:19;1.37;;;1.00;;
36195;SDS011;22237;51.974;4.616;2023-06-19T01:26:44;0.88;;;0.88;;
36195;SDS011;22237;51.974;4.616;2023-06-19T01:29:11;1.80;;;1.13;;
36195;SDS011;22237;51.974;4.616;2023-06-19T01:31:38;2.17;;;1.30;;
36195;SDS011;22237;51.974;4.616;2023-06-19T01:34:07;6.43;;;1.48;;
36195;SDS011;22237;51.974;4.616;2023-06-19T01:36:33;1.30;;;0.90;;
36195;SDS011;22237;51.974;4.616;2023-06-19T01:38:59;1.52;;;1.10;;
36195;SDS011;22237;51.974;4.616;2023-06-19T01:41:25;1.65;;;1.00;;
36195;SDS011;22237;51.974;4.616;2023-06-19T01:43:50;0.93;;;0.73;;
36195;SDS011;22237;51.974;4.616;2023-06-19T01:46:16;2.55;;;1.60;;
36195;SDS011;22237;51.974;4.616;2023-06-19T01:48:41;2.67;;;1.63;;
36195;SDS011;22237;51.974;4.616;2023-06-19T01:51:06;1.60;;;0.87;;
36195;SDS011;22237;51.974;4.616;2023-06-19T01:53:31;1.42;;;1.17;;
36195;SDS011;22237;51.974;4.616;2023-06-19T01:55:57;1.33;;;0.93;;
36195;SDS011;22237;51.974;4.616;2023-06-19T01:58:23;1.17;;;1.08;;
36195;SDS011;22237;51.974;4.616;2023-06-19T02:00:48;1.40;;;1.10;;
36195;SDS011;22237;51.974;4.616;2023-06-19T02:03:13;2.22;;;1.10;;
36195;SDS011;22237;51.974;4.616;2023-06-19T02:05:38;2.92;;;1.10;;
36195;SDS011;22237;51.974;4.616;2023-06-19T02:08:04;2.00;;;1.25;;
36195;SDS011;22237;51.974;4.616;2023-06-19T02:10:30;2.55;;;2.15;;
36195;SDS011;22237;51.974;4.616;2023-06-19T02:12:55;1.30;;;1.03;;
36195;SDS011;22237;51.974;4.616;2023-06-19T02:15:20;2.50;;;1.17;;
36195;SDS011;22237;51.974;4.616;2023-06-19T02:17:46;2.60;;;1.90;;
36195;SDS011;22237;51.974;4.616;2023-06-19T02:20:11;1.87;;;1.20;;
36195;SDS011;22237;51.974;4.616;2023-06-19T02:22:39;1.40;;;1.30;;
36195;SDS011;22237;51.974;4.616;2023-06-19T02:25:05;1.80;;;1.23;;
36195;SDS011;22237;51.974;4.616;2023-06-19T02:27:30;3.97;;;1.55;;
36195;SDS011;22237;51.974;4.616;2023-06-19T02:29:56;5.05;;;1.38;;
36195;SDS011;22237;51.974;4.616;2023-06-19T02:32:21;2.90;;;1.53;;
36195;SDS011;22237;51.974;4.616;2023-06-19T02:34:46;4.57;;;2.70;;
36195;SDS011;22237;51.974;4.616;2023-06-19T02:37:11;4.77;;;2.07;;
36195;SDS011;22237;51.974;4.616;2023-06-19T02:39:37;4.70;;;2.57;;
36195;SDS011;22237;51.974;4.616;2023-06-19T02:42:02;5.25;;;2.58;;
36195;SDS011;22237;51.974;4.616;2023-06-19T02:44:27;4.57;;;2.03;;
36195;SDS011;22237;51.974;4.616;2023-06-19T02:46:52;3.92;;;2.30;;
36195;SDS011;22237;51.974;4.616;2023-06-19T02:49:18;4.40;;;2.43;;
36195;SDS011;22237;51.974;4.616;2023-06-19T02:51:43;3.83;;;2.73;;
36195;SDS011;22237;51.974;4.616;2023-06-19T02:54:08;7.03;;;3.30;;
36195;SDS011;22237;51.974;4.616;2023-06-19T02:56:33;4.40;;;2.20;;
36195;SDS011;22237;51.974;4.616;2023-06-19T02:58:59;7.20;;;1.90;;
36195;SDS011;22237;51.974;4.616;2023-06-19T03:01:24;4.57;;;1.77;;
36195;SDS011;22237;51.974;4.616;2023-06-19T03:03:49;5.93;;;2.57;;
36195;SDS011;22237;51.974;4.616;2023-06-19T03:06:14;2.45;;;1.55;;
36195;SDS011;22237;51.974;4.616;2023-06-19T03:08:39;4.50;;;1.90;;
36195;SDS011;22237;51.974;4.616;2023-06-19T03:11:05;5.65;;;2.40;;
36195;SDS011;22237;51.974;4.616;2023-06-19T03:16:14;5.22;;;1.77;;
36195;SDS011;22237;51.974;4.616;2023-06-19T03:18:40;4.80;;;2.53;;
36195;SDS011;22237;51.974;4.616;2023-06-19T03:21:05;1.77;;;1.65;;
36195;SDS011;22237;51.974;4.616;2023-06-19T03:23:30;5.57;;;1.93;;
36195;SDS011;22237;51.974;4.616;2023-06-19T03:25:55;6.00;;;2.30;;
36195;SDS011;22237;51.974;4.616;2023-06-19T03:28:22;5.35;;;1.92;;
36195;SDS011;22237;51.974;4.616;2023-06-19T03:30:47;1.90;;;1.33;;
36195;SDS011;22237;51.974;4.616;2023-06-19T03:33:12;2.13;;;1.67;;
36195;SDS011;22237;51.974;4.616;2023-06-19T03:35:37;6.47;;;1.50;;
36195;SDS011;22237;51.974;4.616;2023-06-19T03:38:03;5.27;;;2.00;;
36195;SDS011;22237;51.974;4.616;2023-06-19T03:40:28;6.00;;;1.83;;
36195;SDS011;22237;51.974;4.616;2023-06-19T03:42:54;2.08;;;1.23;;
36195;SDS011;22237;51.974;4.616;2023-06-19T03:45:19;5.65;;;1.90;;
36195;SDS011;22237;51.974;4.616;2023-06-19T03:47:44;2.60;;;1.77;;
36195;SDS011;22237;51.974;4.616;2023-06-19T03:50:09;4.57;;;2.10;;
36195;SDS011;22237;51.974;4.616;2023-06-19T03:52:35;1.52;;;1.13;;
36195;SDS011;22237;51.974;4.616;2023-06-19T03:55:00;1.92;;;1.10;;
36195;SDS011;22237;51.974;4.616;2023-06-19T03:57:26;2.13;;;1.48;;
36195;SDS011;22237;51.974;4.616;2023-06-19T03:59:52;1.45;;;1.13;;
36195;SDS011;22237;51.974;4.616;2023-06-19T04:02:18;0.80;;;0.75;;
36195;SDS011;22237;51.974;4.616;2023-06-19T04:04:44;2.10;;;1.00;;
36195;SDS011;22237;51.974;4.616;2023-06-19T04:07:09;2.13;;;1.57;;
36195;SDS011;22237;51.974;4.616;2023-06-19T04:09:34;1.33;;;1.20;;
36195;SDS011;22237;51.974;4.616;2023-06-19T04:11:59;5.73;;;1.70;;
36195;SDS011;22237;51.974;4.616;2023-06-19T04:14:24;2.73;;;1.77;;
36195;SDS011;22237;51.974;4.616;2023-06-19T04:16:50;1.02;;;0.98;;
36195;SDS011;22237;51.974;4.616;2023-06-19T04:19:15;1.30;;;1.08;;
36195;SDS011;22237;51.974;4.616;2023-06-19T04:21:40;1.03;;;0.90;;
36195;SDS011;22237;51.974;4.616;2023-06-19T04:24:05;2.37;;;1.43;;
36195;SDS011;22237;51.974;4.616;2023-06-19T04:26:33;2.47;;;1.40;;
36195;SDS011;22237;51.974;4.616;2023-06-19T04:28:59;2.10;;;1.10;;
36195;SDS011;22237;51.974;4.616;2023-06-19T04:31:26;1.95;;;1.30;;
36195;SDS011;22237;51.974;4.616;2023-06-19T04:33:51;3.00;;;1.25;;
36195;SDS011;22237;51.974;4.616;2023-06-19T04:36:17;3.13;;;1.30;;
36195;SDS011;22237;51.974;4.616;2023-06-19T04:38:42;1.37;;;0.90;;
36195;SDS011;22237;51.974;4.616;2023-06-19T04:41:09;1.17;;;1.05;;
36195;SDS011;22237;51.974;4.616;2023-06-19T04:43:34;6.50;;;1.60;;
36195;SDS011;22237;51.974;4.616;2023-06-19T04:45:59;2.00;;;1.30;;
36195;SDS011;22237;51.974;4.616;2023-06-19T04:48:24;1.20;;;0.98;;
36195;SDS011;22237;51.974;4.616;2023-06-19T04:50:51;2.53;;;1.42;;
36195;SDS011;22237;51.974;4.616;2023-06-19T04:53:16;2.80;;;2.00;;
36195;SDS011;22237;51.974;4.616;2023-06-19T04:55:41;2.53;;;1.33;;
36195;SDS011;22237;51.974;4.616;2023-06-19T04:58:08;2.65;;;1.77;;
36195;SDS011;22237;51.974;4.616;2023-06-19T05:00:33;2.47;;;1.30;;
36195;SDS011;22237;51.974;4.616;2023-06-19T05:02:59;2.67;;;1.95;;
36195;SDS011;22237;51.974;4.616;2023-06-19T05:05:26;2.13;;;1.30;;
36195;SDS011;22237;51.974;4.616;2023-06-19T05:07:51;4.43;;;1.75;;
36195;SDS011;22237;51.974;4.616;2023-06-19T05:10:17;7.68;;;1.95;;
36195;SDS011;22237;51.974;4.616;2023-06-19T05:12:42;3.45;;;2.75;;
36195;SDS011;22237;51.974;4.616;2023-06-19T05:15:07;3.83;;;2.22;;
36195;SDS011;22237;51.974;4.616;2023-06-19T05:17:33;3.88;;;2.05;;
36195;SDS011;22237;51.974;4.616;2023-06-19T05:19:58;3.50;;;2.63;;
36195;SDS011;22237;51.974;4.616;2023-06-19T05:22:23;2.60;;;1.50;;
36195;SDS011;22237;51.974;4.616;2023-06-19T05:24:49;5.32;;;2.08;;
36195;SDS011;22237;51.974;4.616;2023-06-19T05:27:14;7.13;;;2.70;;
36195;SDS011;22237;51.974;4.616;2023-06-19T05:29:39;4.07;;;2.57;;
36195;SDS011;22237;51.974;4.616;2023-06-19T05:32:04;3.70;;;2.37;;
36195;SDS011;22237;51.974;4.616;2023-06-19T05:34:30;4.82;;;2.30;;
36195;SDS011;22237;51.974;4.616;2023-06-19T05:36:55;3.58;;;2.20;;
36195;SDS011;22237;51.974;4.616;2023-06-19T05:39:20;6.90;;;2.23;;
36195;SDS011;22237;51.974;4.616;2023-06-19T05:41:45;2.17;;;1.77;;
36195;SDS011;22237;51.974;4.616;2023-06-19T05:44:11;3.10;;;2.23;;
36195;SDS011;22237;51.974;4.616;2023-06-19T05:46:40;3.85;;;2.13;;
36195;SDS011;22237;51.974;4.616;2023-06-19T05:49:05;4.28;;;1.90;;
36195;SDS011;22237;51.974;4.616;2023-06-19T05:51:30;4.70;;;2.30;;
36195;SDS011;22237;51.974;4.616;2023-06-19T05:53:55;2.57;;;1.80;;
36195;SDS011;22237;51.974;4.616;2023-06-19T05:56:26;5.45;;;2.20;;
36195;SDS011;22237;51.974;4.616;2023-06-19T05:58:51;3.93;;;2.30;;
36195;SDS011;22237;51.974;4.616;2023-06-19T06:01:16;4.40;;;2.43;;
36195;SDS011;22237;51.974;4.616;2023-06-19T06:03:42;5.13;;;2.28;;
36195;SDS011;22237;51.974;4.616;2023-06-19T06:06:08;4.53;;;2.10;;
36195;SDS011;22237;51.974;4.616;2023-06-19T06:08:33;3.72;;;2.25;;
36195;SDS011;22237;51.974;4.616;2023-06-19T06:10:59;2.47;;;1.83;;
36195;SDS011;22237;51.974;4.616;2023-06-19T06:13:24;3.13;;;1.57;;
36195;SDS011;22237;51.974;4.616;2023-06-19T06:15:50;4.07;;;2.30;;
36195;SDS011;22237;51.974;4.616;2023-06-19T06:18:15;6.75;;;1.98;;
36195;SDS011;22237;51.974;4.616;2023-06-19T06:20:41;3.08;;;2.03;;
36195;SDS011;22237;51.974;4.616;2023-06-19T06:23:06;7.60;;;1.97;;
36195;SDS011;22237;51.974;4.616;2023-06-19T06:25:31;3.73;;;2.37;;
36195;SDS011;22237;51.974;4.616;2023-06-19T06:27:56;5.68;;;2.22;;
36195;SDS011;22237;51.974;4.616;2023-06-19T06:30:21;3.42;;;1.98;;
36195;SDS011;22237;51.974;4.616;2023-06-19T06:32:47;4.53;;;2.00;;
36195;SDS011;22237;51.974;4.616;2023-06-19T06:35:13;2.83;;;1.90;;
36195;SDS011;22237;51.974;4.616;2023-06-19T06:37:38;5.07;;;2.78;;
36195;SDS011;22237;51.974;4.616;2023-06-19T06:40:04;3.47;;;2.00;;
36195;SDS011;22237;51.974;4.616;2023-06-19T06:42:33;7.50;;;2.33;;
36195;SDS011;22237;51.974;4.616;2023-06-19T06:44:59;8.88;;;2.42;;
36195;SDS011;22237;51.974;4.616;2023-06-19T06:47:24;3.00;;;2.20;;
36195;SDS011;22237;51.974;4.616;2023-06-19T06:49:49;3.47;;;1.70;;
36195;SDS011;22237;51.974;4.616;2023-06-19T06:52:15;9.88;;;2.13;;
36195;SDS011;22237;51.974;4.616;2023-06-19T06:54:40;3.15;;;1.77;;
36195;SDS011;22237;51.974;4.616;2023-06-19T06:57:06;3.57;;;2.17;;
36195;SDS011;22237;51.974;4.616;2023-06-19T06:59:31;5.03;;;2.13;;
36195;SDS011;22237;51.974;4.616;2023-06-19T07:01:56;8.57;;;2.38;;
36195;SDS011;22237;51.974;4.616;2023-06-19T07:04:21;4.20;;;1.57;;
36195;SDS011;22237;51.974;4.616;2023-06-19T07:06:47;3.20;;;2.58;;
36195;SDS011;22237;51.974;4.616;2023-06-19T07:09:12;3.45;;;1.85;;
36195;SDS011;22237;51.974;4.616;2023-06-19T07:11:37;7.97;;;1.98;;
36195;SDS011;22237;51.974;4.616;2023-06-19T07:14:02;2.40;;;2.20;;
36195;SDS011;22237;51.974;4.616;2023-06-19T07:16:28;4.78;;;2.60;;
36195;SDS011;22237;51.974;4.616;2023-06-19T07:18:53;10.43;;;1.85;;
36195;SDS011;22237;51.974;4.616;2023-06-19T07:21:19;1.75;;;1.55;;
36195;SDS011;22237;51.974;4.616;2023-06-19T07:23:44;2.00;;;1.27;;
36195;SDS011;22237;51.974;4.616;2023-06-19T07:26:10;3.70;;;1.98;;
36195;SDS011;22237;51.974;4.616;2023-06-19T07:28:35;3.43;;;2.00;;
36195;SDS011;22237;51.974;4.616;2023-06-19T07:31:04;4.30;;;1.55;;
36195;SDS011;22237;51.974;4.616;2023-06-19T07:33:29;3.58;;;1.90;;
36195;SDS011;22237;51.974;4.616;2023-06-19T07:35:54;3.58;;;2.30;;
36195;SDS011;22237;51.974;4.616;2023-06-19T07:38:20;3.88;;;1.90;;
36195;SDS011;22237;51.974;4.616;2023-06-19T07:40:45;2.77;;;1.67;;
36195;SDS011;22237;51.974;4.616;2023-06-19T07:43:10;10.63;;;4.13;;
36195;SDS011;22237;51.974;4.616;2023-06-19T07:45:35;5.60;;;3.00;;
36195;SDS011;22237;51.974;4.616;2023-06-19T07:48:01;7.82;;;2.88;;
36195;SDS011;22237;51.974;4.616;2023-06-19T07:50:26;7.50;;;2.78;;
36195;SDS011;22237;51.974;4.616;2023-06-19T07:52:52;11.35;;;2.90;;
36195;SDS011;22237;51.974;4.616;2023-06-19T07:55:17;5.88;;;3.08;;
36195;SDS011;22237;51.974;4.616;2023-06-19T07:57:42;6.00;;;3.00;;
36195;SDS011;22237;51.974;4.616;2023-06-19T08:00:07;8.00;;;4.10;;
36195;SDS011;22237;51.974;4.616;2023-06-19T08:02:36;17.17;;;4.97;;
36195;SDS011;22237;51.974;4.616;2023-06-19T08:05:01;9.80;;;3.38;;
36195;SDS011;22237;51.974;4.616;2023-06-19T08:07:27;8.02;;;2.85;;
36195;SDS011;22237;51.974;4.616;2023-06-19T08:09:52;7.07;;;2.87;;
36195;SDS011;22237;51.974;4.616;2023-06-19T08:12:17;8.77;;;2.97;;
36195;SDS011;22237;51.974;4.616;2023-06-19T08:14:42;11.37;;;3.33;;
36195;SDS011;22237;51.974;4.616;2023-06-19T08:17:07;7.53;;;2.33;;
36195;SDS011;22237;51.974;4.616;2023-06-19T08:19:33;3.20;;;1.98;;
36195;SDS011;22237;51.974;4.616;2023-06-19T08:21:58;3.22;;;2.83;;
36195;SDS011;22237;51.974;4.616;2023-06-19T08:24:23;4.35;;;2.50;;
36195;SDS011;22237;51.974;4.616;2023-06-19T08:26:49;11.10;;;2.78;;
36195;SDS011;22237;51.974;4.616;2023-06-19T08:29:16;8.68;;;2.15;;
36195;SDS011;22237;51.974;4.616;2023-06-19T08:31:41;3.90;;;1.85;;
36195;SDS011;22237;51.974;4.616;2023-06-19T08:34:06;5.23;;;2.37;;
36195;SDS011;22237;51.974;4.616;2023-06-19T08:36:34;6.07;;;2.75;;
36195;SDS011;22237;51.974;4.616;2023-06-19T08:38:59;5.90;;;2.63;;
36195;SDS011;22237;51.974;4.616;2023-06-19T08:41:24;4.63;;;2.43;;
36195;SDS011;22237;51.974;4.616;2023-06-19T08:43:50;7.32;;;3.25;;
36195;SDS011;22237;51.974;4.616;2023-06-19T08:46:16;4.70;;;2.43;;
36195;SDS011;22237;51.974;4.616;2023-06-19T08:48:42;13.40;;;2.75;;
36195;SDS011;22237;51.974;4.616;2023-06-19T08:51:09;5.57;;;3.00;;
36195;SDS011;22237;51.974;4.616;2023-06-19T08:53:35;9.20;;;3.53;;
36195;SDS011;22237;51.974;4.616;2023-06-19T08:56:01;5.97;;;2.72;;
36195;SDS011;22237;51.974;4.616;2023-06-19T08:58:27;4.55;;;2.85;;
36195;SDS011;22237;51.974;4.616;2023-06-19T09:00:52;7.65;;;2.70;;
36195;SDS011;22237;51.974;4.616;2023-06-19T09:03:21;4.85;;;2.35;;
36195;SDS011;22237;51.974;4.616;2023-06-19T09:05:49;6.85;;;2.30;;
36195;SDS011;22237;51.974;4.616;2023-06-19T09:08:16;12.38;;;3.40;;
36195;SDS011;22237;51.974;4.616;2023-06-19T09:10:41;6.55;;;3.15;;
36195;SDS011;22237;51.974;4.616;2023-06-19T09:13:07;4.47;;;2.35;;
36195;SDS011;22237;51.974;4.616;2023-06-19T09:15:35;6.78;;;3.38;;
36195;SDS011;22237;51.974;4.616;2023-06-19T09:18:07;6.93;;;3.53;;
36195;SDS011;22237;51.974;4.616;2023-06-19T09:20:33;5.30;;;2.72;;
36195;SDS011;22237;51.974;4.616;2023-06-19T09:22:59;8.50;;;2.60;;
36195;SDS011;22237;51.974;4.616;2023-06-19T09:25:24;4.65;;;2.95;;
36195;SDS011;22237;51.974;4.616;2023-06-19T09:27:51;6.05;;;3.50;;
36195;SDS011;22237;51.974;4.616;2023-06-19T09:30:16;7.90;;;2.37;;
36195;SDS011;22237;51.974;4.616;2023-06-19T09:32:42;4.45;;;2.85;;
36195;SDS011;22237;51.974;4.616;2023-06-19T09:35:07;6.30;;;3.73;;
36195;SDS011;22237;51.974;4.616;2023-06-19T09:37:32;7.30;;;2.88;;
36195;SDS011;22237;51.974;4.616;2023-06-19T09:40:01;13.13;;;3.47;;
36195;SDS011;22237;51.974;4.616;2023-06-19T09:42:37;5.38;;;3.17;;
36195;SDS011;22237;51.974;4.616;2023-06-19T09:45:06;8.40;;;3.35;;
36195;SDS011;22237;51.974;4.616;2023-06-19T09:47:38;6.47;;;3.20;;
36195;SDS011;22237;51.974;4.616;2023-06-19T09:50:04;6.82;;;3.00;;
36195;SDS011;22237;51.974;4.616;2023-06-19T09:52:31;6.63;;;3.17;;
36195;SDS011;22237;51.974;4.616;2023-06-19T09:54:56;7.43;;;3.08;;
36195;SDS011;22237;51.974;4.616;2023-06-19T09:57:22;9.40;;;3.08;;
36195;SDS011;22237;51.974;4.616;2023-06-19T09:59:51;5.05;;;2.80;;
36195;SDS011;22237;51.974;4.616;2023-06-19T10:02:17;8.07;;;3.13;;
36195;SDS011;22237;51.974;4.616;2023-06-19T10:04:44;4.57;;;3.35;;
36195;SDS011;22237;51.974;4.616;2023-06-19T10:07:19;5.63;;;3.55;;
36195;SDS011;22237;51.974;4.616;2023-06-19T10:09:57;5.03;;;2.97;;
36195;SDS011;22237;51.974;4.616;2023-06-19T10:12:22;5.13;;;2.40;;
36195;SDS011;22237;51.974;4.616;2023-06-19T10:14:47;3.33;;;2.60;;
36195;SDS011;22237;51.974;4.616;2023-06-19T10:17:18;6.00;;;3.10;;
36195;SDS011;22237;51.974;4.616;2023-06-19T10:19:50;11.85;;;2.47;;
36195;SDS011;22237;51.974;4.616;2023-06-19T10:22:20;6.18;;;2.83;;
36195;SDS011;22237;51.974;4.616;2023-06-19T10:24:49;4.60;;;2.80;;
36195;SDS011;22237;51.974;4.616;2023-06-19T10:27:20;3.50;;;2.05;;
36195;SDS011;22237;51.974;4.616;2023-06-19T10:29:51;4.03;;;2.47;;
36195;SDS011;22237;51.974;4.616;2023-06-19T10:32:16;5.13;;;3.03;;
36195;SDS011;22237;51.974;4.616;2023-06-19T10:34:44;8.98;;;2.22;;
36195;SDS011;22237;51.974;4.616;2023-06-19T10:37:10;6.75;;;2.53;;
36195;SDS011;22237;51.974;4.616;2023-06-19T10:39:37;4.43;;;3.07;;
36195;SDS011;22237;51.974;4.616;2023-06-19T10:42:06;5.22;;;3.20;;
36195;SDS011;22237;51.974;4.616;2023-06-19T10:44:32;6.00;;;3.05;;
36195;SDS011;22237;51.974;4.616;2023-06-19T10:46:57;3.47;;;2.60;;
36195;SDS011;22237;51.974;4.616;2023-06-19T10:49:22;3.53;;;2.47;;
36195;SDS011;22237;51.974;4.616;2023-06-19T10:51:48;3.85;;;2.20;;
36195;SDS011;22237;51.974;4.616;2023-06-19T10:54:13;6.40;;;3.35;;
36195;SDS011;22237;51.974;4.616;2023-06-19T10:56:38;4.30;;;2.87;;
36195;SDS011;22237;51.974;4.616;2023-06-19T10:59:04;4.30;;;2.20;;
36195;SDS011;22237;51.974;4.616;2023-06-19T11:01:39;6.60;;;3.22;;
36195;SDS011;22237;51.974;4.616;2023-06-19T11:04:06;5.57;;;2.95;;
36195;SDS011;22237;51.974;4.616;2023-06-19T11:06:31;4.68;;;2.67;;
36195;SDS011;22237;51.974;4.616;2023-06-19T11:08:57;3.42;;;2.42;;
36195;SDS011;22237;51.974;4.616;2023-06-19T11:11:22;3.15;;;2.22;;
36195;SDS011;22237;51.974;4.616;2023-06-19T11:13:47;3.80;;;2.60;;
36195;SDS011;22237;51.974;4.616;2023-06-19T11:16:14;3.93;;;2.17;;
36195;SDS011;22237;51.974;4.616;2023-06-19T11:18:39;2.72;;;2.05;;
36195;SDS011;22237;51.974;4.616;2023-06-19T11:21:04;2.77;;;1.97;;
36195;SDS011;22237;51.974;4.616;2023-06-19T11:23:30;3.50;;;2.10;;
36195;SDS011;22237;51.974;4.616;2023-06-19T11:26:05;3.88;;;2.03;;
36195;SDS011;22237;51.974;4.616;2023-06-19T11:28:30;3.28;;;2.13;;
36195;SDS011;22237;51.974;4.616;2023-06-19T11:31:02;2.70;;;1.73;;
36195;SDS011;22237;51.974;4.616;2023-06-19T11:33:28;3.58;;;1.83;;
36195;SDS011;22237;51.974;4.616;2023-06-19T11:35:54;2.45;;;1.95;;
36195;SDS011;22237;51.974;4.616;2023-06-19T11:38:23;8.90;;;1.95;;
36195;SDS011;22237;51.974;4.616;2023-06-19T11:40:49;7.05;;;2.17;;
36195;SDS011;22237;51.974;4.616;2023-06-19T11:43:27;3.28;;;2.20;;
36195;SDS011;22237;51.974;4.616;2023-06-19T11:45:53;3.72;;;2.15;;
36195;SDS011;22237;51.974;4.616;2023-06-19T11:48:22;3.15;;;1.85;;
36195;SDS011;22237;51.974;4.616;2023-06-19T11:50:48;15.50;;;2.53;;
36195;SDS011;22237;51.974;4.616;2023-06-19T11:53:13;3.83;;;2.42;;
36195;SDS011;22237;51.974;4.616;2023-06-19T11:55:38;2.80;;;1.83;;
36195;SDS011;22237;51.974;4.616;2023-06-19T11:58:03;3.83;;;2.03;;
36195;SDS011;22237;51.974;4.616;2023-06-19T12:00:29;5.50;;;2.63;;
36195;SDS011;22237;51.974;4.616;2023-06-19T12:02:54;4.25;;;2.60;;
36195;SDS011;22237;51.974;4.616;2023-06-19T12:05:21;6.07;;;2.63;;
36195;SDS011;22237;51.974;4.616;2023-06-19T12:07:47;3.70;;;2.93;;
36195;SDS011;22237;51.974;4.616;2023-06-19T12:10:12;7.55;;;2.45;;
36195;SDS011;22237;51.974;4.616;2023-06-19T12:12:37;2.73;;;1.87;;
36195;SDS011;22237;51.974;4.616;2023-06-19T12:15:04;2.42;;;1.80;;
36195;SDS011;22237;51.974;4.616;2023-06-19T12:17:29;3.40;;;2.28;;
36195;SDS011;22237;51.974;4.616;2023-06-19T12:19:55;5.60;;;2.30;;
36195;SDS011;22237;51.974;4.616;2023-06-19T12:22:20;4.83;;;2.83;;
36195;SDS011;22237;51.974;4.616;2023-06-19T12:24:45;3.67;;;2.35;;
36195;SDS011;22237;51.974;4.616;2023-06-19T12:27:11;4.97;;;2.40;;
36195;SDS011;22237;51.974;4.616;2023-06-19T12:29:36;4.33;;;2.60;;
36195;SDS011;22237;51.974;4.616;2023-06-19T12:32:01;2.63;;;1.97;;
36195;SDS011;22237;51.974;4.616;2023-06-19T12:34:29;10.88;;;3.38;;
36195;SDS011;22237;51.974;4.616;2023-06-19T12:36:55;3.73;;;2.07;;
36195;SDS011;22237;51.974;4.616;2023-06-19T12:39:22;3.00;;;2.03;;
36195;SDS011;22237;51.974;4.616;2023-06-19T12:41:47;2.20;;;1.53;;
36195;SDS011;22237;51.974;4.616;2023-06-19T12:44:12;2.35;;;1.70;;
36195;SDS011;22237;51.974;4.616;2023-06-19T12:46:37;3.00;;;1.90;;
36195;SDS011;22237;51.974;4.616;2023-06-19T12:49:03;4.05;;;2.15;;
36195;SDS011;22237;51.974;4.616;2023-06-19T12:51:28;2.65;;;2.15;;
36195;SDS011;22237;51.974;4.616;2023-06-19T12:53:53;4.80;;;2.87;;
36195;SDS011;22237;51.974;4.616;2023-06-19T12:56:18;2.87;;;1.80;;
36195;SDS011;22237;51.974;4.616;2023-06-19T12:58:44;3.17;;;1.83;;
36195;SDS011;22237;51.974;4.616;2023-06-19T13:01:09;4.90;;;1.90;;
36195;SDS011;22237;51.974;4.616;2023-06-19T13:03:34;3.20;;;1.60;;
36195;SDS011;22237;51.974;4.616;2023-06-19T13:05:59;2.80;;;2.00;;
36195;SDS011;22237;51.974;4.616;2023-06-19T13:08:24;6.43;;;2.37;;
36195;SDS011;22237;51.974;4.616;2023-06-19T13:10:50;1.60;;;1.30;;
36195;SDS011;22237;51.974;4.616;2023-06-19T13:13:15;2.77;;;2.17;;
36195;SDS011;22237;51.974;4.616;2023-06-19T13:15:40;1.53;;;1.43;;
36195;SDS011;22237;51.974;4.616;2023-06-19T13:18:05;3.43;;;2.00;;
36195;SDS011;22237;51.974;4.616;2023-06-19T13:20:30;2.07;;;1.50;;
36195;SDS011;22237;51.974;4.616;2023-06-19T13:22:56;3.63;;;2.00;;
36195;SDS011;22237;51.974;4.616;2023-06-19T13:25:22;2.43;;;1.70;;
36195;SDS011;22237;51.974;4.616;2023-06-19T13:27:47;3.43;;;1.80;;
36195;SDS011;22237;51.974;4.616;2023-06-19T13:30:12;2.50;;;1.40;;
36195;SDS011;22237;51.974;4.616;2023-06-19T13:32:37;1.42;;;1.33;;
36195;SDS011;22237;51.974;4.616;2023-06-19T13:35:03;1.23;;;1.10;;
36195;SDS011;22237;51.974;4.616;2023-06-19T13:37:28;5.07;;;1.75;;
36195;SDS011;22237;51.974;4.616;2023-06-19T13:39:54;1.67;;;1.53;;
36195;SDS011;22237;51.974;4.616;2023-06-19T13:42:19;2.73;;;1.73;;
36195;SDS011;22237;51.974;4.616;2023-06-19T13:44:44;1.93;;;1.37;;
36195;SDS011;22237;51.974;4.616;2023-06-19T13:47:10;1.27;;;1.10;;
36195;SDS011;22237;51.974;4.616;2023-06-19T13:49:35;11.57;;;2.90;;
36195;SDS011;22237;51.974;4.616;2023-06-19T13:52:00;3.47;;;1.88;;
36195;SDS011;22237;51.974;4.616;2023-06-19T13:54:25;2.77;;;1.43;;
36195;SDS011;22237;51.974;4.616;2023-06-19T13:56:51;1.15;;;1.05;;
36195;SDS011;22237;51.974;4.616;2023-06-19T13:59:16;5.40;;;1.70;;
36195;SDS011;22237;51.974;4.616;2023-06-19T14:01:41;2.20;;;1.20;;
36195;SDS011;22237;51.974;4.616;2023-06-19T14:04:07;2.75;;;1.85;;
36195;SDS011;22237;51.974;4.616;2023-06-19T14:06:33;1.80;;;1.50;;
36195;SDS011;22237;51.974;4.616;2023-06-19T14:08:59;2.47;;;1.58;;
36195;SDS011;22237;51.974;4.616;2023-06-19T14:11:24;2.63;;;1.10;;
36195;SDS011;22237;51.974;4.616;2023-06-19T14:13:49;2.13;;;1.40;;
36195;SDS011;22237;51.974;4.616;2023-06-19T14:16:15;1.87;;;1.43;;
36195;SDS011;22237;51.974;4.616;2023-06-19T14:18:40;2.70;;;1.38;;
36195;SDS011;22237;51.974;4.616;2023-06-19T14:21:05;2.25;;;1.60;;
36195;SDS011;22237;51.974;4.616;2023-06-19T14:23:31;2.27;;;1.63;;
36195;SDS011;22237;51.974;4.616;2023-06-19T14:25:57;1.98;;;1.77;;
36195;SDS011;22237;51.974;4.616;2023-06-19T14:28:22;2.65;;;1.80;;
36195;SDS011;22237;51.974;4.616;2023-06-19T14:30:47;2.63;;;1.67;;
36195;SDS011;22237;51.974;4.616;2023-06-19T14:33:12;3.07;;;1.50;;
36195;SDS011;22237;51.974;4.616;2023-06-19T14:35:43;4.00;;;1.15;;
36195;SDS011;22237;51.974;4.616;2023-06-19T14:38:12;2.70;;;1.55;;
36195;SDS011;22237;51.974;4.616;2023-06-19T14:40:38;1.63;;;1.35;;
36195;SDS011;22237;51.974;4.616;2023-06-19T14:43:03;2.40;;;1.47;;